createdAt,value
2023-09-08T00:01:29.656Z,13.50
2023-09-08T00:03:57.743Z,12.50
2023-09-08T00:06:25.618Z,11.10
2023-09-08T00:08:53.516Z,12.30
2023-09-08T00:11:21.489Z,10.90
2023-09-08T00:13:51.486Z,11.60
2023-09-08T00:16:19.637Z,10.90
2023-09-08T00:18:47.854Z,12.80
2023-09-08T00:21:15.695Z,11.30
2023-09-08T00:23:43.472Z,13.20
2023-09-08T00:26:11.439Z,10.10
2023-09-08T00:28:39.616Z,11.50
2023-09-08T00:31:07.409Z,12.50
2023-09-08T00:33:35.285Z,13.00
2023-09-08T00:36:03.358Z,11.60
2023-09-08T00:38:32.075Z,13.70
2023-09-08T00:41:02.147Z,11.30
2023-09-08T00:43:30.007Z,11.30
2023-09-08T00:46:00.510Z,14.10
2023-09-08T00:48:28.770Z,13.20
2023-09-08T00:50:57.507Z,11.30
2023-09-08T00:53:25.511Z,10.80
2023-09-08T00:55:53.692Z,11.60
2023-09-08T00:58:21.898Z,11.20
2023-09-08T01:00:50.213Z,12.50
2023-09-08T01:03:18.266Z,14.50
2023-09-08T01:05:48.073Z,13.80
2023-09-08T01:08:16.535Z,14.50
2023-09-08T01:10:44.485Z,10.30
2023-09-08T01:13:12.625Z,12.10
2023-09-08T01:15:40.630Z,15.40
2023-09-08T01:18:09.014Z,14.60
2023-09-08T01:21:06.856Z,11.80
2023-09-08T01:23:56.756Z,14.20
2023-09-08T01:26:28.449Z,12.50
2023-09-08T01:28:56.951Z,12.60
2023-09-08T01:31:24.976Z,15.70
2023-09-08T01:33:53.098Z,11.80
2023-09-08T01:36:21.224Z,14.60
2023-09-08T01:38:49.887Z,11.90
2023-09-08T01:41:17.728Z,17.30
2023-09-08T01:43:45.635Z,13.70
2023-09-08T01:46:14.149Z,12.20
2023-09-08T01:48:42.186Z,14.30
2023-09-08T01:51:10.135Z,12.00
2023-09-08T01:53:37.984Z,11.60
2023-09-08T01:56:09.295Z,12.30
2023-09-08T01:58:37.408Z,11.00
2023-09-08T02:01:07.217Z,12.10
2023-09-08T02:03:35.207Z,14.90
2023-09-08T02:06:03.084Z,12.80
2023-09-08T02:08:30.864Z,12.50
2023-09-08T02:10:58.793Z,15.00
2023-09-08T02:13:26.778Z,13.60
2023-09-08T02:15:54.641Z,12.30
2023-09-08T02:18:22.760Z,14.20
2023-09-08T02:20:53.047Z,11.80
2023-09-08T02:23:20.874Z,14.00
2023-09-08T02:25:48.854Z,14.00
2023-09-08T02:28:17.104Z,13.10
2023-09-08T02:30:44.904Z,14.00
2023-09-08T02:33:12.907Z,12.20
2023-09-08T02:35:40.874Z,13.30
2023-09-08T02:38:09.274Z,13.60
2023-09-08T02:40:37.428Z,12.80
2023-09-08T02:43:05.798Z,14.10
2023-09-08T02:45:36.026Z,13.40
2023-09-08T02:48:04.570Z,12.90
2023-09-08T02:50:32.863Z,12.90
2023-09-08T02:53:00.857Z,15.20
2023-09-08T02:55:28.820Z,13.70
2023-09-08T02:57:57.729Z,13.30
2023-09-08T03:00:26.485Z,12.40
2023-09-08T03:02:54.480Z,14.60
2023-09-08T03:05:22.475Z,14.80
2023-09-08T03:07:50.758Z,17.40
2023-09-08T03:10:18.804Z,14.00
2023-09-08T03:12:48.086Z,14.40
2023-09-08T03:15:16.272Z,14.20
2023-09-08T03:17:44.308Z,14.60
2023-09-08T03:20:12.636Z,13.10
2023-09-08T03:22:40.754Z,14.90
2023-09-08T03:25:09.160Z,15.30
2023-09-08T03:27:36.991Z,13.90
2023-09-08T03:30:05.877Z,17.80
2023-09-08T03:32:33.887Z,16.70
2023-09-08T03:35:01.909Z,14.80
2023-09-08T03:37:29.803Z,15.50
2023-09-08T03:39:57.761Z,16.70
2023-09-08T03:42:26.023Z,14.20
2023-09-08T03:44:53.895Z,16.50
2023-09-08T03:47:21.922Z,15.60
2023-09-08T03:49:49.852Z,14.00
2023-09-08T03:52:17.752Z,13.60
2023-09-08T03:54:47.634Z,13.80
2023-09-08T03:57:15.513Z,17.00
2023-09-08T03:59:43.497Z,17.60
2023-09-08T04:02:11.340Z,16.60
2023-09-08T04:04:39.150Z,15.20
2023-09-08T04:07:07.036Z,23.30
2023-09-08T04:09:34.895Z,15.20
2023-09-08T04:12:03.056Z,17.30
2023-09-08T04:14:31.756Z,17.30
2023-09-08T04:16:59.629Z,15.10
2023-09-08T04:19:27.514Z,17.60
2023-09-08T04:21:55.806Z,18.00
2023-09-08T04:24:23.746Z,22.40
2023-09-08T04:26:51.591Z,15.10
2023-09-08T04:29:20.141Z,17.00
2023-09-08T04:31:48.042Z,16.40
2023-09-08T04:34:16.206Z,24.70
2023-09-08T04:36:43.998Z,22.40
2023-09-08T04:39:12.823Z,16.30
2023-09-08T04:41:40.795Z,20.10
2023-09-08T04:44:08.768Z,18.10
2023-09-08T04:46:36.879Z,18.00
2023-09-08T04:49:05.209Z,19.00
2023-09-08T04:51:33.121Z,19.60
2023-09-08T04:54:00.986Z,19.10
2023-09-08T04:56:29.217Z,16.90
2023-09-08T04:58:57.414Z,15.30
2023-09-08T05:01:25.255Z,18.60
2023-09-08T05:03:53.297Z,19.70
2023-09-08T05:06:21.418Z,18.50
2023-09-08T05:08:49.235Z,24.40
2023-09-08T05:11:18.129Z,21.10
2023-09-08T05:13:47.930Z,20.50
2023-09-08T05:16:15.799Z,22.10
2023-09-08T05:18:43.980Z,17.50
2023-09-08T05:21:11.950Z,19.80
2023-09-08T05:23:39.815Z,22.80
2023-09-08T05:26:07.652Z,20.20
2023-09-08T05:28:38.969Z,19.60
2023-09-08T05:31:08.042Z,17.10
2023-09-08T05:33:36.115Z,21.00
2023-09-08T05:36:03.924Z,21.10
2023-09-08T05:38:32.083Z,20.50
2023-09-08T05:41:00.102Z,19.80
2023-09-08T05:43:27.969Z,19.60
2023-09-08T05:45:56.457Z,21.00
2023-09-08T05:48:24.530Z,19.70
2023-09-08T05:50:52.378Z,18.90
2023-09-08T05:53:20.280Z,19.20
2023-09-08T05:55:48.361Z,19.00
2023-09-08T05:58:16.300Z,19.20
2023-09-08T06:00:44.514Z,19.60
2023-09-08T06:03:12.669Z,21.20
2023-09-08T06:05:40.795Z,20.50
2023-09-08T06:08:08.604Z,20.00
2023-09-08T06:10:36.603Z,18.40
2023-09-08T06:13:04.748Z,20.00
2023-09-08T06:15:32.584Z,20.30
2023-09-08T06:18:00.613Z,19.30
2023-09-08T06:20:28.736Z,20.50
2023-09-08T06:22:56.812Z,19.40
2023-09-08T06:25:24.730Z,21.20
2023-09-08T06:27:52.694Z,21.00
2023-09-08T06:30:20.904Z,23.60
2023-09-08T06:32:49.092Z,21.20
2023-09-08T06:35:17.357Z,26.60
2023-09-08T06:37:45.460Z,21.70
2023-09-08T06:40:14.500Z,21.20
2023-09-08T06:42:42.492Z,25.50
2023-09-08T06:45:10.868Z,21.60
2023-09-08T06:47:39.257Z,22.40
2023-09-08T06:50:08.191Z,26.30
2023-09-08T06:52:36.177Z,23.80
2023-09-08T06:55:04.273Z,23.70
2023-09-08T06:57:32.316Z,26.30
2023-09-08T07:00:00.223Z,26.00
2023-09-08T07:02:29.311Z,23.20
2023-09-08T07:04:57.671Z,28.70
2023-09-08T07:07:26.444Z,26.50
2023-09-08T07:09:54.371Z,27.50
2023-09-08T07:12:22.500Z,24.00
2023-09-08T07:14:50.666Z,25.10
2023-09-08T07:17:18.693Z,26.40
2023-09-08T07:19:46.625Z,23.40
2023-09-08T07:22:14.732Z,21.20
2023-09-08T07:24:42.764Z,24.20
2023-09-08T07:27:10.747Z,22.70
2023-09-08T07:29:38.678Z,24.10
2023-09-08T07:32:06.684Z,27.50
2023-09-08T07:34:34.990Z,24.50
2023-09-08T07:37:02.929Z,24.70
2023-09-08T07:39:31.560Z,24.70
2023-09-08T07:42:01.919Z,24.60
2023-09-08T07:44:30.226Z,25.50
2023-09-08T07:46:58.231Z,23.30
2023-09-08T07:49:26.460Z,21.30
2023-09-08T07:51:54.440Z,24.20
2023-09-08T07:54:22.381Z,22.60
2023-09-08T07:56:50.456Z,23.10
2023-09-08T07:59:18.398Z,23.90
2023-09-08T08:01:46.425Z,22.40
2023-09-08T08:04:14.560Z,22.10
2023-09-08T08:06:42.678Z,19.90
2023-09-08T08:09:11.630Z,22.50
2023-09-08T08:11:39.549Z,20.60
2023-09-08T08:14:07.511Z,19.30
2023-09-08T08:16:36.001Z,16.40
2023-09-08T08:19:04.662Z,21.40
2023-09-08T08:21:32.670Z,24.70
2023-09-08T08:24:00.655Z,22.70
2023-09-08T08:26:31.123Z,20.90
2023-09-08T08:28:59.109Z,19.00
2023-09-08T08:31:27.049Z,21.50
2023-09-08T08:33:55.148Z,20.90
2023-09-08T08:36:23.423Z,19.60
2023-09-08T08:38:51.624Z,18.30
2023-09-08T08:41:19.472Z,15.90
2023-09-08T08:43:48.756Z,16.10
2023-09-08T08:46:17.760Z,18.00
2023-09-08T08:48:47.091Z,17.00
2023-09-08T08:51:17.163Z,15.40
2023-09-08T08:53:45.260Z,17.90
2023-09-08T08:56:13.244Z,21.00
2023-09-08T08:58:42.886Z,16.40
2023-09-08T09:01:12.715Z,19.10
2023-09-08T09:03:41.660Z,15.40
2023-09-08T09:06:11.694Z,18.40
2023-09-08T09:08:40.398Z,18.20
2023-09-08T09:11:08.562Z,15.50
2023-09-08T09:13:36.614Z,14.70
2023-09-08T09:16:05.620Z,18.20
2023-09-08T09:18:34.045Z,16.60
2023-09-08T09:21:02.879Z,16.00
2023-09-08T09:23:35.084Z,15.00
2023-09-08T09:28:34.349Z,14.90
2023-09-08T09:31:02.679Z,15.00
2023-09-08T09:33:31.390Z,19.80
2023-09-08T09:36:00.486Z,15.00
2023-09-08T09:38:29.127Z,15.50
2023-09-08T09:40:57.714Z,15.40
2023-09-08T09:43:25.857Z,17.40
2023-09-08T09:45:54.757Z,15.90
2023-09-08T09:48:25.296Z,13.40
2023-09-08T09:50:53.218Z,13.30
2023-09-08T09:53:21.899Z,14.60
2023-09-08T09:55:49.884Z,16.00
2023-09-08T09:58:19.600Z,16.60
2023-09-08T10:00:49.770Z,17.40
2023-09-08T10:03:19.790Z,13.40
2023-09-08T10:05:49.607Z,12.40
2023-09-08T10:08:17.777Z,15.00
2023-09-08T10:10:47.677Z,13.10
2023-09-08T10:13:19.835Z,14.00
2023-09-08T10:15:48.787Z,14.80
2023-09-08T10:18:18.043Z,11.30
2023-09-08T10:20:46.327Z,12.30
2023-09-08T10:23:24.263Z,11.30
2023-09-08T10:25:56.080Z,13.40
2023-09-08T10:28:24.516Z,12.00
2023-09-08T10:30:53.168Z,11.70
2023-09-08T10:33:21.512Z,11.40
2023-09-08T10:35:49.529Z,10.90
2023-09-08T10:38:27.674Z,13.60
2023-09-08T10:41:18.633Z,11.60
2023-09-08T10:43:47.626Z,14.50
2023-09-08T10:46:27.650Z,11.70
2023-09-08T10:48:56.420Z,14.10
2023-09-08T10:51:25.970Z,13.30
2023-09-08T10:53:53.833Z,12.70
2023-09-08T10:56:22.078Z,14.50
2023-09-08T10:58:53.744Z,14.80
2023-09-08T11:01:28.688Z,11.10
2023-09-08T11:03:59.506Z,13.70
2023-09-08T11:06:31.911Z,15.20
2023-09-08T11:09:08.201Z,12.10
2023-09-08T11:11:38.089Z,10.40
2023-09-08T11:14:06.154Z,10.70
2023-09-08T11:16:34.645Z,12.30
2023-09-08T11:19:06.174Z,12.90
2023-09-08T11:21:36.609Z,13.40
2023-09-08T11:24:08.175Z,12.80
2023-09-08T11:26:36.112Z,12.50
2023-09-08T11:29:04.109Z,10.30
2023-09-08T11:31:33.046Z,11.70
2023-09-08T11:34:01.416Z,13.00
2023-09-08T11:36:30.669Z,12.50
2023-09-08T11:38:58.676Z,9.70
2023-09-08T11:41:26.622Z,10.50
2023-09-08T11:43:54.637Z,13.30
2023-09-08T11:46:22.915Z,9.90
2023-09-08T11:48:51.028Z,8.60
2023-09-08T11:51:23.930Z,11.80
2023-09-08T11:53:51.870Z,9.90
2023-09-08T11:56:19.679Z,9.00
2023-09-08T11:58:48.717Z,9.90
2023-09-08T12:01:17.253Z,11.00
2023-09-08T12:04:03.267Z,11.40
2023-09-08T12:06:31.463Z,9.20
2023-09-08T12:09:04.060Z,11.10
2023-09-08T12:11:36.597Z,10.70
2023-09-08T12:14:09.309Z,10.10
2023-09-08T12:16:37.714Z,10.40
2023-09-08T12:19:05.990Z,9.20
2023-09-08T12:21:44.450Z,9.90
2023-09-08T12:24:15.128Z,10.20
2023-09-08T12:26:43.140Z,10.80
2023-09-08T12:29:14.151Z,9.40
2023-09-08T12:31:42.243Z,9.50
2023-09-08T12:34:10.449Z,14.20
2023-09-08T12:36:39.258Z,10.50
2023-09-08T12:39:07.221Z,8.40
2023-09-08T12:41:35.218Z,11.50
2023-09-08T12:44:03.276Z,8.40
2023-09-08T12:46:33.378Z,10.90
2023-09-08T12:49:01.626Z,9.00
2023-09-08T12:51:29.594Z,10.00
2023-09-08T12:53:57.593Z,10.20
2023-09-08T12:56:25.526Z,10.30
2023-09-08T12:58:54.092Z,9.40
2023-09-08T13:01:22.967Z,9.00
2023-09-08T13:03:50.861Z,8.50
2023-09-08T13:06:18.867Z,9.00
2023-09-08T13:08:47.077Z,13.30
2023-09-08T13:11:15.068Z,8.90
2023-09-08T13:13:43.420Z,9.40
2023-09-08T13:16:11.448Z,10.90
2023-09-08T13:18:40.230Z,9.70
2023-09-08T13:21:08.384Z,9.20
2023-09-08T13:23:36.286Z,9.60
2023-09-08T13:26:04.156Z,8.90
2023-09-08T13:28:32.249Z,7.30
2023-09-08T13:31:00.401Z,9.20
2023-09-08T13:33:28.524Z,9.70
2023-09-08T13:35:57.243Z,8.10
2023-09-08T13:38:25.420Z,6.20
2023-09-08T13:40:54.398Z,9.20
2023-09-08T13:43:23.627Z,9.70
2023-09-08T13:45:52.296Z,9.90
2023-09-08T13:48:21.533Z,7.80
2023-09-08T13:50:51.020Z,8.10
2023-09-08T13:53:20.619Z,8.00
2023-09-08T13:55:51.539Z,8.70
2023-09-08T13:58:20.728Z,7.70
2023-09-08T14:00:53.554Z,7.30
2023-09-08T14:03:23.444Z,7.70
2023-09-08T14:05:54.601Z,8.30
2023-09-08T14:15:55.593Z,7.40
2023-09-08T14:18:23.648Z,7.20
2023-09-08T14:20:51.637Z,9.80
2023-09-08T14:23:19.600Z,8.10
2023-09-08T14:25:47.602Z,8.20
2023-09-08T14:28:15.470Z,6.90
2023-09-08T14:30:43.980Z,8.30
2023-09-08T14:33:12.255Z,8.40
2023-09-08T14:35:47.431Z,9.60
2023-09-08T14:38:17.892Z,8.20
2023-09-08T14:40:47.039Z,8.50
2023-09-08T14:43:15.020Z,7.90
2023-09-08T14:45:43.294Z,10.20
2023-09-08T14:48:11.192Z,8.30
2023-09-08T14:50:39.651Z,7.70
2023-09-08T14:53:08.146Z,6.40
2023-09-08T14:55:36.616Z,6.20
2023-09-08T14:58:04.813Z,13.70
2023-09-08T15:00:33.061Z,7.20
2023-09-08T15:03:02.768Z,6.40
2023-09-08T15:05:31.975Z,8.20
2023-09-08T15:08:00.695Z,5.70
2023-09-08T15:10:29.209Z,6.90
2023-09-08T15:12:57.360Z,8.20
2023-09-08T15:15:25.451Z,7.50
2023-09-08T15:17:56.825Z,7.30
2023-09-08T15:20:24.819Z,6.20
2023-09-08T15:22:54.851Z,5.30
2023-09-08T15:25:22.720Z,8.90
2023-09-08T15:27:50.917Z,8.20
2023-09-08T15:30:18.884Z,10.20
2023-09-08T15:32:47.236Z,8.10
2023-09-08T15:35:15.361Z,10.20
2023-09-08T15:37:43.402Z,7.80
2023-09-08T15:40:15.480Z,7.50
2023-09-08T15:42:44.747Z,7.50
2023-09-08T15:45:15.133Z,6.40
2023-09-08T15:47:43.417Z,5.90
2023-09-08T15:50:12.258Z,6.70
2023-09-08T15:52:40.274Z,9.90
2023-09-08T15:55:08.434Z,7.60
2023-09-08T15:57:36.542Z,6.50
2023-09-08T16:00:04.895Z,7.50
2023-09-08T16:02:32.927Z,8.90
2023-09-08T16:05:01.237Z,6.60
2023-09-08T16:07:29.147Z,10.30
2023-09-08T16:09:57.016Z,6.80
2023-09-08T16:12:25.039Z,7.20
2023-09-08T16:14:53.222Z,9.80
2023-09-08T16:17:21.172Z,7.30
2023-09-08T16:19:49.690Z,10.50
2023-09-08T16:22:17.589Z,9.30
2023-09-08T16:24:46.228Z,7.80
2023-09-08T16:27:14.541Z,7.20
2023-09-08T16:29:43.180Z,9.10
2023-09-08T16:32:12.242Z,9.20
2023-09-08T16:34:40.454Z,8.00
2023-09-08T16:37:08.609Z,7.00
2023-09-08T16:39:36.521Z,8.10
2023-09-08T16:42:04.980Z,9.90
2023-09-08T16:44:32.977Z,13.40
2023-09-08T16:47:00.985Z,13.80
2023-09-08T16:49:29.435Z,8.20
2023-09-08T16:51:57.988Z,8.10
2023-09-08T16:54:27.042Z,8.20
2023-09-08T16:56:54.967Z,11.00
2023-09-08T16:59:23.463Z,7.30
2023-09-08T17:01:51.451Z,8.30
2023-09-08T17:04:19.747Z,7.70
2023-09-08T17:06:49.262Z,7.90
2023-09-08T17:09:18.558Z,8.10
2023-09-08T17:11:46.518Z,8.00
2023-09-08T17:14:14.594Z,9.00
2023-09-08T17:16:42.575Z,7.10
2023-09-08T17:19:11.319Z,11.10
2023-09-08T17:21:39.356Z,8.80
2023-09-08T17:24:07.697Z,7.60
2023-09-08T17:26:35.779Z,9.30
2023-09-08T17:29:03.686Z,9.50
2023-09-08T17:31:31.855Z,9.50
2023-09-08T17:33:59.748Z,9.00
2023-09-08T17:36:27.951Z,10.70
2023-09-08T17:38:55.774Z,9.40
2023-09-08T17:41:23.612Z,8.10
2023-09-08T17:43:51.551Z,8.80
2023-09-08T17:46:19.563Z,8.10
2023-09-08T17:48:47.672Z,10.60
2023-09-08T17:51:15.828Z,9.60
2023-09-08T17:53:43.761Z,9.00
2023-09-08T17:56:11.595Z,9.50
2023-09-08T17:58:39.603Z,11.60
2023-09-08T18:01:07.526Z,9.20
2023-09-08T18:03:36.086Z,11.30
2023-09-08T18:06:05.708Z,10.10
2023-09-08T18:08:33.741Z,12.10
2023-09-08T18:11:03.773Z,9.50
2023-09-08T18:13:31.872Z,11.40
2023-09-08T18:16:07.175Z,9.90
2023-09-08T18:18:35.952Z,8.30
2023-09-08T18:21:03.818Z,8.20
2023-09-08T18:23:31.961Z,10.90
2023-09-08T18:25:59.843Z,11.20
2023-09-08T18:28:27.898Z,10.70
2023-09-08T18:30:55.817Z,9.00
2023-09-08T18:33:23.924Z,10.10
2023-09-08T18:35:52.095Z,9.60
2023-09-08T18:38:20.095Z,10.30
2023-09-08T18:40:48.224Z,10.20
2023-09-08T18:43:16.745Z,13.50
2023-09-08T18:45:44.867Z,14.60
2023-09-08T18:48:13.166Z,10.30
2023-09-08T18:50:41.744Z,14.90
2023-09-08T18:53:11.005Z,10.90
2023-09-08T18:55:39.540Z,10.60
2023-09-08T18:58:09.046Z,11.10
2023-09-08T19:00:37.242Z,12.10
2023-09-08T19:03:05.603Z,12.70
2023-09-08T19:05:33.809Z,14.30
2023-09-08T19:08:02.349Z,13.00
2023-09-08T19:10:31.255Z,12.40
2023-09-08T19:12:59.264Z,11.30
2023-09-08T19:15:27.165Z,11.70
2023-09-08T19:17:55.707Z,10.90
2023-09-08T19:20:24.033Z,10.20
2023-09-08T19:22:52.024Z,14.30
2023-09-08T19:25:20.447Z,14.30
2023-09-08T19:27:48.352Z,14.40
2023-09-08T19:30:17.304Z,12.00
2023-09-08T19:32:45.646Z,12.20
2023-09-08T19:35:13.689Z,14.10
2023-09-08T19:37:41.639Z,9.20
2023-09-08T19:40:09.841Z,13.30
2023-09-08T19:42:37.862Z,13.40
2023-09-08T19:45:06.384Z,10.50
2023-09-08T19:47:34.368Z,13.20
2023-09-08T19:50:02.627Z,13.00
2023-09-08T19:52:30.601Z,14.00
2023-09-08T19:54:58.919Z,10.10
2023-09-08T19:57:26.821Z,11.70
2023-09-08T19:59:54.909Z,14.10
2023-09-08T20:02:22.921Z,13.00
2023-09-08T20:04:50.793Z,12.80
2023-09-08T20:07:19.237Z,14.40
2023-09-08T20:09:47.058Z,14.60
2023-09-08T20:12:14.999Z,11.00
2023-09-08T20:14:43.134Z,16.80
2023-09-08T20:17:11.045Z,15.00
2023-09-08T20:19:39.131Z,12.10
2023-09-08T20:22:07.205Z,13.60
2023-09-08T20:24:35.463Z,18.00
2023-09-08T20:27:03.538Z,15.20
2023-09-08T20:29:31.656Z,14.10
2023-09-08T20:31:59.841Z,16.70
2023-09-08T20:34:27.723Z,16.80
2023-09-08T20:36:56.096Z,17.50
2023-09-08T20:39:24.303Z,15.80
2023-09-08T20:41:52.370Z,12.90
2023-09-08T20:44:20.266Z,14.60
2023-09-08T20:46:48.219Z,16.30
2023-09-08T20:49:16.104Z,15.20
2023-09-08T20:51:43.941Z,15.80
2023-09-08T20:54:12.017Z,12.80
2023-09-08T20:56:40.151Z,14.10
2023-09-08T20:59:08.098Z,11.90
2023-09-08T21:01:37.070Z,16.40
2023-09-08T21:04:05.269Z,15.70
2023-09-08T21:06:33.149Z,13.90
2023-09-08T21:09:01.324Z,15.90
2023-09-08T21:11:29.293Z,13.90
2023-09-08T21:13:57.748Z,13.00
2023-09-08T21:16:25.780Z,21.60
2023-09-08T21:18:54.707Z,14.80
2023-09-08T21:21:22.569Z,15.30
2023-09-08T21:23:50.492Z,40.40
2023-09-08T21:26:18.413Z,106.90
2023-09-08T21:28:46.432Z,103.30
2023-09-08T21:31:14.672Z,107.30
2023-09-08T21:33:43.089Z,100.90
2023-09-08T21:36:15.814Z,88.10
2023-09-08T21:38:44.410Z,75.00
2023-09-08T21:41:15.716Z,59.80
2023-09-08T21:43:43.557Z,51.10
2023-09-08T21:46:12.050Z,42.40
2023-09-08T21:48:40.538Z,33.20
2023-09-08T21:51:10.238Z,33.10
2023-09-08T21:53:38.513Z,32.20
2023-09-08T21:56:07.315Z,31.00
2023-09-08T21:58:35.515Z,31.20
2023-09-08T22:01:04.155Z,26.20
2023-09-08T22:03:32.537Z,27.20
2023-09-08T22:06:00.862Z,25.00
2023-09-08T22:08:28.926Z,20.90
2023-09-08T22:11:03.356Z,19.70
2023-09-08T22:13:32.357Z,19.10
2023-09-08T22:16:03.309Z,15.50
2023-09-08T22:18:34.372Z,16.10
2023-09-08T22:21:02.395Z,21.30
2023-09-08T22:23:30.500Z,19.10
2023-09-08T22:25:58.427Z,28.20
2023-09-08T22:28:26.334Z,17.00
2023-09-08T22:30:54.962Z,21.80
2023-09-08T22:33:23.271Z,17.20
2023-09-08T22:35:51.358Z,17.10
2023-09-08T22:38:19.354Z,15.10
2023-09-08T22:40:47.208Z,17.10
2023-09-08T22:43:15.590Z,20.10
2023-09-08T22:45:44.122Z,19.60
2023-09-08T22:48:12.186Z,16.20
2023-09-08T22:50:41.339Z,17.20
2023-09-08T22:53:14.417Z,16.20
2023-09-08T22:55:42.796Z,18.20
2023-09-08T22:58:11.059Z,17.60
2023-09-08T23:00:39.219Z,17.80
2023-09-08T23:03:07.173Z,19.20
2023-09-08T23:05:35.785Z,18.70
2023-09-08T23:08:04.168Z,16.70
2023-09-08T23:10:32.180Z,16.60
2023-09-08T23:13:00.036Z,20.70
2023-09-08T23:15:29.997Z,18.20
2023-09-08T23:17:58.063Z,18.00
2023-09-08T23:20:26.601Z,16.00
2023-09-08T23:22:54.482Z,17.30
2023-09-08T23:25:22.398Z,20.80
2023-09-08T23:27:50.283Z,15.30
2023-09-08T23:30:18.279Z,15.30
2023-09-08T23:32:46.684Z,20.00
2023-09-08T23:35:14.631Z,14.80
2023-09-08T23:37:43.752Z,18.80
2023-09-08T23:40:13.078Z,17.50
2023-09-08T23:42:41.166Z,19.80
2023-09-08T23:45:10.323Z,19.60
2023-09-08T23:47:38.659Z,19.70
2023-09-08T23:50:07.724Z,17.10
2023-09-08T23:52:35.688Z,19.70
2023-09-08T23:55:04.281Z,15.50
2023-09-08T23:57:32.228Z,17.80
